• Join FlightAware (Why Join?)
  • Login
  • US Flag 
11:53AM EDT


 

Airport Tracker/Info


-or-


 

Live Flight TrackerFlight Track Log ✈ UAL822 ✈ 10-May-2013 ✈ KIAD - KBOS

Flight Track Log - Related Links

Times and Time Zones

All times are in EDT time to prevent confusion due to time zone crossing. See the UAL822 flight status page for this flight to view local times or setup timezone preferences in your user account.

Time Position Orientation Groundspeed Altitude Reporting Facility
EDT Latitude Longitude Course Direction KTS MPH feet Rate Location/Type
05:26PM 39.0500 -77.5833 339° North 289 333 5,400  Level Potomac TRACON
05:27PM 39.1333 -77.5667 North 297 342 9,300 2,280 Climbing Potomac TRACON
05:28PM 39.2167 -77.5167 25° Northeast 356 410 10,000 300 Climbing Potomac TRACON
05:29PM 39.0656 -76.7400 78° East  Level FlightAware Approximate
05:29PM 39.2000 -77.3833 99° East 389 448 10,000  Level Potomac TRACON
05:30PM 39.0892 -76.5979 78° East  Level FlightAware Approximate
05:30PM 39.1667 -77.2500 108° East 382 440 10,000  Level Potomac TRACON
05:31PM 39.1333 -77.1167 108° East 388 447 11,000 2,160 Climbing Potomac TRACON
05:33PM 39.0819 -76.8564 104° East 399 459 16,600 2,460 Climbing Washington Center
05:34PM 39.0958 -76.7094 83° East 394 453 18,400 1,200 Climbing Washington Center
05:35PM 39.1117 -76.5628 82° East 399 459 19,000 1,140 Climbing Washington Center
05:36PM 39.1294 -76.4158 81° East 406 467 20,800 1,740 Climbing Washington Center
05:37PM 39.1450 -76.2606 83° East 421 484 22,500 1,020 Climbing Washington Center
05:38PM 39.1644 -76.1164 80° East 432 497 22,900 180 Climbing Washington Center
05:39PM 39.1836 -75.9583 81° East 446 513 22,900  Level Washington Center
05:40PM 39.2528 -75.8300 55° Northeast 434 499 22,900  Level Washington Center
05:41PM 39.3364 -75.7150 47° Northeast 427 491 22,900  Level Washington Center
05:42PM 39.4364 -75.6292 34° Northeast 427 491 22,900 540 Level Washington Center
05:43PM 39.5386 -75.5458 32° Northeast 427 491 24,000 1,560 Climbing Washington Center
05:44PM 39.6447 -75.4594 32° Northeast 438 504 26,000 2,040 Climbing Washington Center
05:45PM 39.7467 -75.3731 33° Northeast 438 504 28,200 1,380 Climbing Washington Center
05:46PM 39.8444 -75.2889 33° Northeast 433 498 28,900 420 Climbing Washington Center
05:47PM 39.8944 -75.2136 49° Northeast 431 496 28,900 60 Level New York Center
05:48PM 39.9431 -75.0839 64° Northeast 450 518 29,000  Climbing New York Center
05:49PM 40.0131 -74.9339 59° Northeast 445 512 28,900 -60 Descending New York Center
05:50PM 40.0739 -74.7992 59° Northeast 433 498 28,900  Level New York Center
05:51PM 40.1467 -74.6783 52° Northeast 422 486 28,900  Level New York Center
05:52PM 40.2200 -74.5467 54° Northeast 428 493 28,900  Level New York Center
05:53PM 40.2906 -74.4225 53° Northeast 445 512 28,900  Level New York Center
05:54PM 40.3675 -74.2931 52° Northeast 451 519 28,900  Level New York Center
05:55PM 40.4483 -74.1583 52° Northeast 456 525 28,900  Level New York Center
05:56PM 40.5231 -74.0228 54° Northeast 456 525 28,900 -900 Level New York Center
05:57PM 40.6689 -73.7808 51° Northeast 451 519 26,600 -1,140 Descending Boston Center
05:58PM 40.7136 -73.7022 53° Northeast 451 519 25,800 -1,200 Descending Boston Center
05:59PM 40.8072 -73.5206 56° Northeast 457 526 24,200 -960 Descending Boston Center
06:00PM 40.8811 -73.3981 51° Northeast 437 503 23,900 -300 Descending Boston Center
06:01PM 40.9842 -73.3006 36° Northeast 412 474 23,600 -360 Descending Boston Center
06:02PM 41.0681 -73.2386 29° Northeast 412 474 23,200 -300 Descending Boston Center
06:03PM 41.1894 -73.1517 28° Northeast 412 474 23,000 -180 Descending Boston Center
06:04PM 41.2919 -73.0700 31° Northeast 418 481 22,900 -60 Descending Boston Center
06:05PM 41.3633 -72.9489 52° Northeast 418 481 22,900  Level Boston Center
06:06PM 41.3892 -72.7914 78° East 405 466 22,900  Level Boston Center
06:07PM 41.4081 -72.6642 79° East 416 479 22,900  Level Boston Center
06:08PM 41.4375 -72.4928 77° East 421 484 22,900  Level Boston Center
06:09PM 41.4606 -72.3322 79° East 432 497 22,900 -180 Level Boston Center
06:10PM 41.4936 -72.1631 75° East 426 490 22,600 -600 Descending Boston Center
06:11PM 41.5472 -72.0214 63° Northeast 426 490 21,800 -1,020 Descending Boston Center
06:12PM 41.5883 -71.8906 67° East 409 471 20,600 -2,340 Descending Boston Center
06:13PM 41.6169 -71.7681 73° East 371 427 17,200 -3,180 Descending Boston Center
06:14PM 41.6100 -71.6517 95° East 339 390 14,300 -2,520 Descending Boston Center
06:15PM 41.6297 -71.5236 78° East 325 374 12,200 -1,620 Descending Boston Center
06:16PM 41.6769 -71.4422 52° Northeast 303 349 11,100 -600 Descending Boston Center
06:17PM 41.7300 -71.3303 58° Northeast 311 358 11,000 -60 Descending Boston Center
06:18PM 41.8047 -71.2761 28° Northeast 303 349 11,000 -300 Level Boston Center
06:19PM 41.8833 -71.2356 21° North 298 343 10,400 -1,320 Descending Boston Center
06:20PM 41.9622 -71.1978 20° North 298 343 8,400 -1,860 Descending Boston Center
06:21PM 42.0389 -71.1625 19° North 292 336 6,700 -1,740 Descending Boston Center
06:22PM 42.1094 -71.1275 20° North 280 322 5,000 -1,680 Descending Boston Center
06:23PM 42.1333 -71.1167 19° North 271 312 4,500 -1,320 Descending KA90
06:24PM 42.2167 -71.0833 17° North 275 316 3,300 -1,260 Descending KA90